Lavaltrie, Canada
Current Conditions -  °F | °C
As of 9:00 AM on Saturday 25 Oct 2014 (Local Time) from CYHU Reporting Station
Clear Clear  
Wind Chill: 41°   Ceiling: Unl
Heat Index: 46°   Visibility: 9mi
Dew Point: 41°   Wind: 12mph
Humidity: 81%   Direction: 230°SW
Pressure: 29.72"   Gusts: NA
Location:  45.88°N, 73.28°W
Report Text: CYHU 251300Z AUTO 23010KT 9SM CLR 08/05 A2972 RMK SLP063
Loading
Personal Weather Stations






























Interactive Weather Map
Tropical Storm Tracking
New forecast layout! Learn more

10-Day Weather Forecast

Advertisements
Track Severe Weather on mobile